Vienna International Airport LOWW

Flugplatz Daten

Name: Vienna International Airport

Ident: LOWW

Lat: 48,11029816

Long: 16,56970024

Platzhöhe: 600 ft

IataCode: VIE

City: Vienna

Homepage: http://www.viennaairport.com/jart/prj3/via/website.jart?rel=en&reserve-mode=active/

Metar

2022/08/14 05:20
LOWW 140520Z 33009KT 9999 SCT020 BKN046 21/16 Q1011 NOSIG

Taf

2022/08/14 03:21
TAF LOWW 140215Z 1403/1509 34010KT 9999 BKN030 TX26/1414Z TN17/1504Z
TEMPO 1404/1418 -SHRA
TEMPO 1412/1418 FEW030CB
FM141800 VRB04KT CAVOK

Webcams

Wien Schwechat Wien Schwechat
Gewünschte Webcam nicht vorhanden? Dann fügen Sie eine hinzu. Sie wird dann so schnell wie möglich freigeschaltet
Url: Title: